createdAt,value
2023-06-07T00:00:09.668Z,68.67
2023-06-07T00:01:09.724Z,69.04
2023-06-07T00:02:09.722Z,69.04
2023-06-07T00:03:09.714Z,69.04
2023-06-07T00:04:09.855Z,69.15
2023-06-07T00:05:09.607Z,69.04
2023-06-07T00:06:09.602Z,68.95
2023-06-07T00:07:09.804Z,68.84
2023-06-07T00:08:09.570Z,68.74
2023-06-07T00:09:09.623Z,68.74
2023-06-07T00:10:09.549Z,68.74
2023-06-07T00:11:10.409Z,68.74
2023-06-07T00:12:09.524Z,68.74
2023-06-07T00:13:09.575Z,68.84
2023-06-07T00:14:09.523Z,68.74
2023-06-07T00:15:09.551Z,68.74
2023-06-07T00:16:09.537Z,68.54
2023-06-07T00:17:09.533Z,68.54
2023-06-07T00:18:09.619Z,68.64
2023-06-07T00:19:09.481Z,68.84
2023-06-07T00:20:09.440Z,68.74
2023-06-07T00:21:09.467Z,68.74
2023-06-07T00:22:09.439Z,68.64
2023-06-07T00:23:09.458Z,68.74
2023-06-07T00:24:09.488Z,68.74
2023-06-07T00:25:09.440Z,68.54
2023-06-07T00:26:09.414Z,68.54
2023-06-07T00:27:09.440Z,68.54
2023-06-07T00:28:09.365Z,68.64
2023-06-07T00:29:09.395Z,68.74
2023-06-07T00:30:09.334Z,68.95
2023-06-07T00:31:09.359Z,68.74
2023-06-07T00:32:09.331Z,68.44
2023-06-07T00:33:09.354Z,68.33
2023-06-07T00:34:09.318Z,68.54
2023-06-07T00:35:09.349Z,68.33
2023-06-07T00:36:09.299Z,68.44
2023-06-07T00:37:09.303Z,68.33
2023-06-07T00:38:09.278Z,68.44
2023-06-07T00:39:09.316Z,68.54
2023-06-07T00:40:09.266Z,68.64
2023-06-07T00:41:09.257Z,68.64
2023-06-07T00:42:09.229Z,68.74
2023-06-07T00:43:09.232Z,68.84
2023-06-07T00:44:09.221Z,68.74
2023-06-07T00:45:09.223Z,68.74
2023-06-07T00:46:09.184Z,68.95
2023-06-07T00:47:09.170Z,69.15
2023-06-07T00:48:09.243Z,69.24
2023-06-07T00:49:09.163Z,69.15
2023-06-07T00:50:09.170Z,69.04
2023-06-07T00:51:09.188Z,69.04
2023-06-07T00:52:09.139Z,68.95
2023-06-07T00:53:09.117Z,69.15
2023-06-07T00:54:09.113Z,69.35
2023-06-07T00:55:09.122Z,69.24
2023-06-07T00:56:09.085Z,69.24
2023-06-07T00:57:09.087Z,69.24
2023-06-07T00:58:09.095Z,69.24
2023-06-07T00:59:09.044Z,69.24
2023-06-07T01:00:09.056Z,69.15
2023-06-07T01:01:09.070Z,69.15
2023-06-07T01:02:09.091Z,69.15
2023-06-07T01:03:09.131Z,69.04
2023-06-07T01:04:09.067Z,68.95
2023-06-07T01:05:09.006Z,69.04
2023-06-07T01:06:09.012Z,69.15
2023-06-07T01:07:09.008Z,69.15
2023-06-07T01:08:08.977Z,69.35
2023-06-07T01:09:08.954Z,69.35
2023-06-07T01:10:08.932Z,69.35
2023-06-07T01:11:08.924Z,69.24
2023-06-07T01:12:08.908Z,69.35
2023-06-07T01:13:08.959Z,69.55
2023-06-07T01:14:08.900Z,69.65
2023-06-07T01:15:08.904Z,69.85
2023-06-07T01:16:08.891Z,70.06
2023-06-07T01:17:08.872Z,70.15
2023-06-07T01:18:08.906Z,70.15
2023-06-07T01:19:08.887Z,70.15
2023-06-07T01:20:08.855Z,70.15
2023-06-07T01:21:08.838Z,70.06
2023-06-07T01:22:08.806Z,70.15
2023-06-07T01:23:08.821Z,70.26
2023-06-07T01:24:08.862Z,70.26
2023-06-07T01:25:08.801Z,70.06
2023-06-07T01:26:08.769Z,70.19
2023-06-07T01:27:08.765Z,69.98
2023-06-07T01:28:08.770Z,69.68
2023-06-07T01:29:08.744Z,69.68
2023-06-07T01:30:08.737Z,69.98
2023-06-07T01:31:09.211Z,69.98
2023-06-07T01:32:08.823Z,69.98
2023-06-07T01:33:08.759Z,70.22
2023-06-07T01:34:08.712Z,70.53
2023-06-07T01:35:08.704Z,70.62
2023-06-07T01:36:08.685Z,70.73
2023-06-07T01:37:08.700Z,70.93
2023-06-07T01:38:08.744Z,70.93
2023-06-07T01:39:08.667Z,70.93
2023-06-07T01:40:08.643Z,70.93
2023-06-07T01:41:08.637Z,71.03
2023-06-07T01:42:08.635Z,71.13
2023-06-07T01:43:08.602Z,71.03
2023-06-07T01:44:08.597Z,71.13
2023-06-07T01:45:08.599Z,71.03
2023-06-07T01:46:08.625Z,71.03
2023-06-07T01:47:08.606Z,70.93
2023-06-07T01:48:08.600Z,70.93
2023-06-07T01:49:08.557Z,70.93
2023-06-07T01:50:08.541Z,70.93
2023-06-07T01:51:08.537Z,71.23
2023-06-07T01:52:08.549Z,71.30
2023-06-07T01:53:08.544Z,71.30
2023-06-07T01:54:08.511Z,71.30
2023-06-07T01:55:08.503Z,71.30
2023-06-07T01:56:08.488Z,71.40
2023-06-07T01:57:08.457Z,71.30
2023-06-07T01:58:08.476Z,70.69
2023-06-07T01:59:08.480Z,70.79
2023-06-07T02:00:08.421Z,70.69
2023-06-07T02:01:08.441Z,70.39
2023-06-07T02:02:08.415Z,70.62
2023-06-07T02:03:08.464Z,70.62
2023-06-07T02:04:08.455Z,70.83
2023-06-07T02:05:08.401Z,71.03
2023-06-07T02:06:08.383Z,71.13
2023-06-07T02:07:08.356Z,71.23
2023-06-07T02:08:08.357Z,71.33
2023-06-07T02:09:08.364Z,71.33
2023-06-07T02:10:08.338Z,71.44
2023-06-07T02:11:08.339Z,71.44
2023-06-07T02:12:08.312Z,71.44
2023-06-07T02:13:08.285Z,71.44
2023-06-07T02:14:08.300Z,71.53
2023-06-07T02:15:08.277Z,71.64
2023-06-07T02:16:08.270Z,71.73
2023-06-07T02:17:08.330Z,71.84
2023-06-07T02:18:08.302Z,71.84
2023-06-07T02:19:08.451Z,71.84
2023-06-07T02:20:08.231Z,71.94
2023-06-07T02:21:08.224Z,72.04
2023-06-07T02:22:08.224Z,72.04
2023-06-07T02:23:08.206Z,72.14
2023-06-07T02:24:08.292Z,72.04
2023-06-07T02:25:08.160Z,71.84
2023-06-07T02:26:08.172Z,71.94
2023-06-07T02:27:08.168Z,71.94
2023-06-07T02:28:08.145Z,72.04
2023-06-07T02:29:08.148Z,71.94
2023-06-07T02:30:08.122Z,72.04
2023-06-07T02:31:08.186Z,72.14
2023-06-07T02:32:08.104Z,72.24
2023-06-07T02:33:08.264Z,72.14
2023-06-07T02:34:08.096Z,71.84
2023-06-07T02:35:08.082Z,71.73
2023-06-07T02:36:08.072Z,71.64
2023-06-07T02:37:08.055Z,71.53
2023-06-07T02:38:08.029Z,71.53
2023-06-07T02:39:08.047Z,71.53
2023-06-07T02:40:08.021Z,71.73
2023-06-07T02:41:07.995Z,71.64
2023-06-07T02:42:08.002Z,71.73
2023-06-07T02:43:07.984Z,71.94
2023-06-07T02:44:08.073Z,71.94
2023-06-07T02:45:07.981Z,72.14
2023-06-07T02:46:07.973Z,72.14
2023-06-07T02:47:08.000Z,72.24
2023-06-07T02:48:07.999Z,72.24
2023-06-07T02:49:07.939Z,72.24
2023-06-07T02:50:07.962Z,72.24
2023-06-07T02:51:07.916Z,72.34
2023-06-07T02:52:07.921Z,72.24
2023-06-07T02:53:07.872Z,72.24
2023-06-07T02:54:07.872Z,72.44
2023-06-07T02:55:07.870Z,72.55
2023-06-07T02:56:07.911Z,72.85
2023-06-07T02:57:07.859Z,72.85
2023-06-07T02:58:07.837Z,72.44
2023-06-07T02:59:07.823Z,72.28
2023-06-07T03:00:07.875Z,72.58
2023-06-07T03:01:07.826Z,73.08
2023-06-07T03:02:07.925Z,73.22
2023-06-07T03:03:07.910Z,73.32
2023-06-07T03:04:07.774Z,73.52
2023-06-07T03:05:07.759Z,73.63
2023-06-07T03:06:07.766Z,73.52
2023-06-07T03:07:07.738Z,73.52
2023-06-07T03:08:07.725Z,73.63
2023-06-07T03:09:07.725Z,73.72
2023-06-07T03:10:07.816Z,73.72
2023-06-07T03:11:07.725Z,73.63
2023-06-07T03:12:07.711Z,73.69
2023-06-07T03:13:07.700Z,73.69
2023-06-07T03:14:07.683Z,73.69
2023-06-07T03:15:07.664Z,73.69
2023-06-07T03:16:07.708Z,73.69
2023-06-07T03:17:07.661Z,73.79
2023-06-07T03:18:07.648Z,73.79
2023-06-07T03:19:07.617Z,73.79
2023-06-07T03:20:07.955Z,73.79
2023-06-07T03:21:07.610Z,73.90
2023-06-07T03:22:07.654Z,73.79
2023-06-07T03:23:07.574Z,73.69
2023-06-07T03:24:07.622Z,73.69
2023-06-07T03:25:07.569Z,73.59
2023-06-07T03:26:07.593Z,73.69
2023-06-07T03:27:07.630Z,73.69
2023-06-07T03:28:07.555Z,73.59
2023-06-07T03:29:07.506Z,73.59
2023-06-07T03:30:07.817Z,73.69
2023-06-07T03:31:07.514Z,73.69
2023-06-07T03:32:07.510Z,73.69
2023-06-07T03:33:07.509Z,73.28
2023-06-07T03:34:07.483Z,73.08
2023-06-07T03:35:07.476Z,72.99
2023-06-07T03:36:07.459Z,73.08
2023-06-07T03:37:07.435Z,73.28
2023-06-07T03:38:07.473Z,73.59
2023-06-07T03:39:07.432Z,74.10
2023-06-07T03:40:07.706Z,74.50
2023-06-07T03:41:07.385Z,74.80
2023-06-07T03:42:07.380Z,75.10
2023-06-07T03:43:07.424Z,75.21
2023-06-07T03:44:07.358Z,75.31
2023-06-07T03:45:07.374Z,75.31
2023-06-07T03:46:07.349Z,75.31
2023-06-07T03:47:07.344Z,75.31
2023-06-07T03:48:07.416Z,75.41
2023-06-07T03:49:07.410Z,75.51
2023-06-07T03:50:07.614Z,75.61
2023-06-07T03:51:07.309Z,75.61
2023-06-07T03:52:07.374Z,75.41
2023-06-07T03:53:07.288Z,75.21
2023-06-07T03:54:07.315Z,75.10
2023-06-07T03:55:07.265Z,75.01
2023-06-07T03:56:07.272Z,74.90
2023-06-07T03:57:07.228Z,74.80
2023-06-07T03:58:07.220Z,74.80
2023-06-07T03:59:07.230Z,74.70
2023-06-07T04:00:07.447Z,75.21
2023-06-07T04:01:07.187Z,75.31
2023-06-07T04:02:07.178Z,75.31
2023-06-07T04:03:07.250Z,75.51
2023-06-07T04:04:07.360Z,75.51
2023-06-07T04:05:07.218Z,75.31
2023-06-07T04:06:07.144Z,75.10
2023-06-07T04:07:07.121Z,74.90
2023-06-07T04:08:07.102Z,74.80
2023-06-07T04:09:07.113Z,74.50
2023-06-07T04:10:07.578Z,74.50
2023-06-07T04:11:07.092Z,74.40
2023-06-07T04:12:07.059Z,74.40
2023-06-07T04:13:07.070Z,74.19
2023-06-07T04:14:07.043Z,74.19
2023-06-07T04:15:07.077Z,74.19
2023-06-07T04:16:07.116Z,74.19
2023-06-07T04:17:07.044Z,74.40
2023-06-07T04:18:07.075Z,74.50
2023-06-07T04:19:07.023Z,74.40
2023-06-07T04:20:07.084Z,74.30
2023-06-07T04:21:06.989Z,74.30
2023-06-07T04:22:07.009Z,74.30
2023-06-07T04:23:06.969Z,74.19
2023-06-07T04:24:07.022Z,74.19
2023-06-07T04:25:06.944Z,74.19
2023-06-07T04:26:06.924Z,74.40
2023-06-07T04:27:06.927Z,74.50
2023-06-07T04:28:06.962Z,74.40
2023-06-07T04:29:06.967Z,74.50
2023-06-07T04:30:07.169Z,74.60
2023-06-07T04:31:06.883Z,74.70
2023-06-07T04:32:06.877Z,74.70
2023-06-07T04:33:06.940Z,74.70
2023-06-07T04:34:06.891Z,74.80
2023-06-07T04:35:06.861Z,74.60
2023-06-07T04:36:06.828Z,74.50
2023-06-07T04:37:06.822Z,74.46
2023-06-07T04:38:06.816Z,74.57
2023-06-07T04:39:06.808Z,74.57
2023-06-07T04:40:07.254Z,74.57
2023-06-07T04:41:06.804Z,74.46
2023-06-07T04:42:06.792Z,74.57
2023-06-07T04:43:06.761Z,74.46
2023-06-07T04:44:06.797Z,74.57
2023-06-07T04:45:06.756Z,74.97
2023-06-07T04:46:06.839Z,75.17
2023-06-07T04:47:10.757Z,75.37
2023-06-07T04:48:06.729Z,75.48
2023-06-07T04:49:06.695Z,75.92
2023-06-07T04:50:07.022Z,76.12
2023-06-07T04:51:06.729Z,76.12
2023-06-07T04:52:06.668Z,76.22
2023-06-07T04:53:06.661Z,76.22
2023-06-07T04:54:06.650Z,76.32
2023-06-07T04:55:06.640Z,76.32
2023-06-07T04:56:06.659Z,76.22
2023-06-07T04:57:06.616Z,76.22
2023-06-07T04:58:06.607Z,76.12
2023-06-07T04:59:06.587Z,75.92
2023-06-07T05:00:06.753Z,75.71
2023-06-07T05:01:06.588Z,75.71
2023-06-07T05:02:06.584Z,75.81
2023-06-07T05:03:06.651Z,75.51
2023-06-07T05:04:06.544Z,75.92
2023-06-07T05:05:06.572Z,76.12
2023-06-07T05:06:06.532Z,76.22
2023-06-07T05:07:06.531Z,76.22
2023-06-07T05:08:06.582Z,76.32
2023-06-07T05:09:06.503Z,76.52
2023-06-07T05:10:06.703Z,76.62
2023-06-07T05:11:06.471Z,76.93
2023-06-07T05:12:06.454Z,76.93
2023-06-07T05:13:06.454Z,76.72
2023-06-07T05:14:06.458Z,76.42
2023-06-07T05:15:06.428Z,75.88
2023-06-07T05:16:06.449Z,75.48
2023-06-07T05:17:06.412Z,75.48
2023-06-07T05:18:06.413Z,75.98
2023-06-07T05:19:06.635Z,75.78
2023-06-07T05:20:06.643Z,75.78
2023-06-07T05:21:06.373Z,75.98
2023-06-07T05:22:06.376Z,75.98
2023-06-07T05:23:06.359Z,75.98
2023-06-07T05:24:06.427Z,76.08
2023-06-07T05:25:06.365Z,76.08
2023-06-07T05:26:06.316Z,75.88
2023-06-07T05:27:06.308Z,75.88
2023-06-07T05:28:12.803Z,75.78
2023-06-07T05:29:06.286Z,75.64
2023-06-07T05:30:06.522Z,75.64
2023-06-07T05:31:06.729Z,75.54
2023-06-07T05:32:06.267Z,75.44
2023-06-07T05:33:06.361Z,75.34
2023-06-07T05:34:06.270Z,75.44
2023-06-07T05:35:06.217Z,75.34
2023-06-07T05:36:06.214Z,75.24
2023-06-07T05:37:06.215Z,75.13
2023-06-07T05:38:06.186Z,75.10
2023-06-07T05:39:06.197Z,75.10
2023-06-07T05:40:06.593Z,75.00
2023-06-07T05:41:06.170Z,74.60
2023-06-07T05:42:06.155Z,74.80
2023-06-07T05:43:06.159Z,74.90
2023-06-07T05:44:06.158Z,74.90
2023-06-07T05:45:06.144Z,74.90
2023-06-07T05:46:06.126Z,75.20
2023-06-07T05:47:06.137Z,75.20
2023-06-07T05:48:06.168Z,75.20
2023-06-07T05:49:06.163Z,75.40
2023-06-07T05:50:06.465Z,75.51
2023-06-07T05:51:08.344Z,75.51
2023-06-07T05:52:06.038Z,75.31
2023-06-07T05:53:06.066Z,75.10
2023-06-07T05:54:06.041Z,74.80
2023-06-07T05:55:06.034Z,74.29
2023-06-07T05:56:06.012Z,74.40
2023-06-07T05:57:06.004Z,74.09
2023-06-07T05:58:05.998Z,74.09
2023-06-07T05:59:05.992Z,74.40
2023-06-07T06:00:06.305Z,74.60
2023-06-07T06:01:05.970Z,74.60
2023-06-07T06:02:06.038Z,74.60
2023-06-07T06:03:05.972Z,74.40
2023-06-07T06:04:05.927Z,74.29
2023-06-07T06:05:06.024Z,74.46
2023-06-07T06:06:05.912Z,74.16
2023-06-07T06:07:05.903Z,74.26
2023-06-07T06:08:05.877Z,74.46
2023-06-07T06:09:05.872Z,74.36
2023-06-07T06:10:06.308Z,74.36
2023-06-07T06:11:05.894Z,74.46
2023-06-07T06:12:05.869Z,74.46
2023-06-07T06:13:05.828Z,74.12
2023-06-07T06:14:05.817Z,74.32
2023-06-07T06:15:05.828Z,74.43
2023-06-07T06:16:05.842Z,74.22
2023-06-07T06:17:05.846Z,73.92
2023-06-07T06:18:05.870Z,74.02
2023-06-07T06:19:05.784Z,74.43
2023-06-07T06:20:06.171Z,74.22
2023-06-07T06:21:05.989Z,74.32
2023-06-07T06:22:05.780Z,73.92
2023-06-07T06:23:05.729Z,73.79
2023-06-07T06:24:05.763Z,73.79
2023-06-07T06:25:05.701Z,73.79
2023-06-07T06:26:06.538Z,73.68
2023-06-07T06:27:05.717Z,73.99
2023-06-07T06:28:05.746Z,74.08
2023-06-07T06:29:05.668Z,73.99
2023-06-07T06:30:05.917Z,73.79
2023-06-07T06:31:05.708Z,73.75
2023-06-07T06:32:05.653Z,73.65
2023-06-07T06:33:05.725Z,73.45
2023-06-07T06:34:05.649Z,73.45
2023-06-07T06:35:05.631Z,73.25
2023-06-07T06:36:05.621Z,73.45
2023-06-07T06:37:05.582Z,73.35
2023-06-07T06:38:05.571Z,73.45
2023-06-07T06:39:05.613Z,73.45
2023-06-07T06:40:05.907Z,73.45
2023-06-07T06:41:07.558Z,73.25
2023-06-07T06:42:05.542Z,73.35
2023-06-07T06:43:05.551Z,73.35
2023-06-07T06:44:05.534Z,73.35
2023-06-07T06:45:05.525Z,73.41
2023-06-07T06:46:05.509Z,73.65
2023-06-07T06:47:05.579Z,73.85
2023-06-07T06:48:05.645Z,73.82
2023-06-07T06:49:12.815Z,73.92
2023-06-07T06:50:12.021Z,73.72
2023-06-07T06:51:05.472Z,73.72
2023-06-07T06:52:05.460Z,73.92
2023-06-07T06:53:05.474Z,74.12
2023-06-07T06:54:05.416Z,74.12
2023-06-07T06:55:05.421Z,74.12
2023-06-07T06:56:05.413Z,74.02
2023-06-07T06:57:05.467Z,74.12
2023-06-07T06:58:05.404Z,73.92
2023-06-07T06:59:05.393Z,74.32
2023-06-07T07:00:05.636Z,74.22
2023-06-07T07:01:05.362Z,74.12
2023-06-07T07:02:05.362Z,73.82
2023-06-07T07:03:05.416Z,73.82
2023-06-07T07:04:05.348Z,73.82
2023-06-07T07:05:05.319Z,74.22
2023-06-07T07:06:05.295Z,74.12
2023-06-07T07:07:05.301Z,74.22
2023-06-07T07:08:05.316Z,74.62
2023-06-07T07:09:05.353Z,74.73
2023-06-07T07:10:05.547Z,74.52
2023-06-07T07:11:05.262Z,74.32
2023-06-07T07:12:05.239Z,74.22
2023-06-07T07:13:05.288Z,72.97
2023-06-07T07:14:05.231Z,73.68
2023-06-07T07:15:05.211Z,73.78
2023-06-07T07:16:05.271Z,74.38
2023-06-07T07:17:05.251Z,74.08
2023-06-07T07:18:05.327Z,73.88
2023-06-07T07:19:05.213Z,73.58
2023-06-07T07:20:05.417Z,73.58
2023-06-07T07:21:05.164Z,72.97
2023-06-07T07:22:05.155Z,72.67
2023-06-07T07:23:05.165Z,73.18
2023-06-07T07:24:05.248Z,72.67
2023-06-07T07:25:05.124Z,72.67
2023-06-07T07:26:05.110Z,72.97
2023-06-07T07:27:05.085Z,73.68
2023-06-07T07:28:05.073Z,73.88
2023-06-07T07:29:05.096Z,73.98
2023-06-07T07:30:05.242Z,72.77
2023-06-07T07:31:05.036Z,73.08
2023-06-07T07:32:05.029Z,73.68
2023-06-07T07:33:05.084Z,73.18
2023-06-07T07:34:05.146Z,73.58
2023-06-07T07:35:05.131Z,73.35
2023-06-07T07:36:05.028Z,73.55
2023-06-07T07:37:05.004Z,73.65
2023-06-07T07:38:04.984Z,73.75
2023-06-07T07:39:04.962Z,73.04
2023-06-07T07:40:05.157Z,73.04
2023-06-07T07:41:04.946Z,73.35
2023-06-07T07:42:04.938Z,72.91
2023-06-07T07:43:04.942Z,72.50
2023-06-07T07:44:04.944Z,72.61
2023-06-07T07:45:04.982Z,72.71
2023-06-07T07:46:05.072Z,72.81
2023-06-07T07:47:04.889Z,72.71
2023-06-07T07:48:05.001Z,72.81
2023-06-07T07:49:04.880Z,73.11
2023-06-07T07:50:05.285Z,72.57
2023-06-07T07:51:04.855Z,71.67
2023-06-07T07:52:04.826Z,71.36
2023-06-07T07:53:04.836Z,71.16
2023-06-07T07:54:04.803Z,72.07
2023-06-07T07:55:05.036Z,71.97
2023-06-07T07:56:04.792Z,72.37
2023-06-07T07:57:04.785Z,72.47
2023-06-07T07:58:04.778Z,72.07
2023-06-07T07:59:04.775Z,71.87
2023-06-07T08:00:05.065Z,71.94
2023-06-07T08:01:04.787Z,71.73
2023-06-07T08:02:04.746Z,70.93
2023-06-07T08:03:04.913Z,71.53
2023-06-07T08:04:04.786Z,71.23
2023-06-07T08:05:04.840Z,71.53
2023-06-07T08:06:04.685Z,71.73
2023-06-07T08:07:04.689Z,71.13
2023-06-07T08:08:04.671Z,71.23
2023-06-07T08:09:04.653Z,70.43
2023-06-07T08:10:04.881Z,71.23
2023-06-07T08:11:04.636Z,70.93
2023-06-07T08:12:04.669Z,70.43
2023-06-07T08:13:04.623Z,71.40
2023-06-07T08:14:04.679Z,71.40
2023-06-07T08:15:04.605Z,71.00
2023-06-07T08:16:04.620Z,70.50
2023-06-07T08:17:04.581Z,69.89
2023-06-07T08:18:04.590Z,70.50
2023-06-07T08:19:04.646Z,70.50
2023-06-07T08:20:04.730Z,70.50
2023-06-07T08:21:04.535Z,69.99
2023-06-07T08:22:04.532Z,69.99
2023-06-07T08:23:04.573Z,69.59
2023-06-07T08:24:04.674Z,69.85
2023-06-07T08:25:04.502Z,70.16
2023-06-07T08:26:04.496Z,69.56
2023-06-07T08:27:04.480Z,69.46
2023-06-07T08:28:04.493Z,69.85
2023-06-07T08:29:04.452Z,69.66
2023-06-07T08:30:04.704Z,69.35
2023-06-07T08:31:04.472Z,69.56
2023-06-07T08:32:04.429Z,69.56
2023-06-07T08:33:04.456Z,69.35
2023-06-07T08:34:04.487Z,69.46
2023-06-07T08:35:04.375Z,69.35
2023-06-07T08:36:04.376Z,69.42
2023-06-07T08:37:04.380Z,69.53
2023-06-07T08:38:04.364Z,69.22
2023-06-07T08:39:04.358Z,69.02
2023-06-07T08:40:04.670Z,68.92
2023-06-07T08:41:04.344Z,69.22
2023-06-07T08:42:04.322Z,68.42
2023-06-07T08:43:04.294Z,68.08
2023-06-07T08:44:04.286Z,68.19
2023-06-07T08:45:04.286Z,68.19
2023-06-07T08:46:04.334Z,67.88
2023-06-07T08:47:04.343Z,68.19
2023-06-07T08:48:04.330Z,68.19
2023-06-07T08:49:04.248Z,68.79
2023-06-07T08:50:04.664Z,69.09
2023-06-07T08:51:04.459Z,69.39
2023-06-07T08:52:15.581Z,69.39
2023-06-07T08:53:04.222Z,69.69
2023-06-07T08:54:04.210Z,69.59
2023-06-07T08:55:04.170Z,69.49
2023-06-07T08:56:04.195Z,69.49
2023-06-07T08:57:04.259Z,69.49
2023-06-07T08:58:04.155Z,69.29
2023-06-07T08:59:04.133Z,69.26
2023-06-07T09:00:04.404Z,69.35
2023-06-07T09:01:04.189Z,69.56
2023-06-07T09:02:04.125Z,69.26
2023-06-07T09:03:04.254Z,69.66
2023-06-07T09:04:04.125Z,69.46
2023-06-07T09:05:04.092Z,69.76
2023-06-07T09:06:04.089Z,68.85
2023-06-07T09:07:04.061Z,68.65
2023-06-07T09:08:04.215Z,68.65
2023-06-07T09:09:04.089Z,68.55
2023-06-07T09:10:04.445Z,68.82
2023-06-07T09:11:04.027Z,68.42
2023-06-07T09:12:04.020Z,67.92
2023-06-07T09:13:03.997Z,67.72
2023-06-07T09:14:04.018Z,67.42
2023-06-07T09:15:03.992Z,66.72
2023-06-07T09:16:03.970Z,67.02
2023-06-07T09:17:04.115Z,67.32
2023-06-07T09:18:04.170Z,67.32
2023-06-07T09:19:03.927Z,66.72
2023-06-07T09:20:04.301Z,66.49
2023-06-07T09:21:03.914Z,66.69
2023-06-07T09:22:03.901Z,66.78
2023-06-07T09:23:03.881Z,66.99
2023-06-07T09:24:03.994Z,66.69
2023-06-07T09:25:04.320Z,66.59
2023-06-07T09:26:03.862Z,66.96
2023-06-07T09:27:03.847Z,66.25
2023-06-07T09:28:03.877Z,66.05
2023-06-07T09:29:03.829Z,65.83
2023-06-07T09:30:04.365Z,65.72
2023-06-07T09:31:03.855Z,65.72
2023-06-07T09:32:03.809Z,65.52
2023-06-07T09:33:03.837Z,64.83
2023-06-07T09:34:03.779Z,64.92
2023-06-07T09:35:03.997Z,64.59
2023-06-07T09:36:03.890Z,64.39
2023-06-07T09:37:03.783Z,64.19
2023-06-07T09:38:03.736Z,64.49
2023-06-07T09:39:03.728Z,64.29
2023-06-07T09:40:04.019Z,64.19
2023-06-07T09:41:03.733Z,64.09
2023-06-07T09:42:03.750Z,64.19
2023-06-07T09:43:03.686Z,63.89
2023-06-07T09:44:03.680Z,63.86
2023-06-07T09:45:03.715Z,63.46
2023-06-07T09:46:03.755Z,63.46
2023-06-07T09:47:04.987Z,62.09
2023-06-07T09:48:03.777Z,61.99
2023-06-07T09:49:03.711Z,62.19
2023-06-07T09:50:03.898Z,62.89
2023-06-07T09:51:03.611Z,63.19
2023-06-07T09:52:03.661Z,63.19
2023-06-07T09:53:03.610Z,62.39
2023-06-07T09:54:03.652Z,62.59
2023-06-07T09:55:04.115Z,62.49
2023-06-07T09:56:03.556Z,63.19
2023-06-07T09:57:03.565Z,63.59
2023-06-07T09:58:03.540Z,63.49
2023-06-07T09:59:03.712Z,62.79
2023-06-07T10:00:04.061Z,62.99
2023-06-07T10:01:03.588Z,63.29
2023-06-07T10:02:03.491Z,62.49
2023-06-07T10:03:03.591Z,62.16
2023-06-07T10:04:03.558Z,62.16
2023-06-07T10:05:03.519Z,62.46
2023-06-07T10:06:03.447Z,62.99
2023-06-07T10:07:03.433Z,62.89
2023-06-07T10:08:03.441Z,62.89
2023-06-07T10:09:03.427Z,63.09
2023-06-07T10:10:04.369Z,63.19
2023-06-07T10:11:03.452Z,62.39
2023-06-07T10:12:03.430Z,62.70
2023-06-07T10:13:03.444Z,62.79
2023-06-07T10:14:03.383Z,62.99
2023-06-07T10:15:03.386Z,62.79
2023-06-07T10:16:04.222Z,62.49
2023-06-07T10:17:03.419Z,62.39
2023-06-07T10:18:03.382Z,62.19
2023-06-07T10:19:03.335Z,62.09
2023-06-07T10:20:03.984Z,61.69
2023-06-07T10:21:03.297Z,61.99
2023-06-07T10:22:03.366Z,62.29
2023-06-07T10:23:03.384Z,62.70
2023-06-07T10:24:03.354Z,63.59
2023-06-07T10:25:03.267Z,63.49
2023-06-07T10:26:03.254Z,63.49
2023-06-07T10:27:03.234Z,62.79
2023-06-07T10:28:03.260Z,61.79
2023-06-07T10:29:03.263Z,61.69
2023-06-07T10:30:03.414Z,62.39
2023-06-07T10:31:03.224Z,62.59
2023-06-07T10:32:03.213Z,62.59
2023-06-07T10:33:03.221Z,62.79
2023-06-07T10:34:03.166Z,62.89
2023-06-07T10:35:03.169Z,62.70
2023-06-07T10:36:03.166Z,62.79
2023-06-07T10:37:03.145Z,62.70
2023-06-07T10:38:03.122Z,61.96
2023-06-07T10:39:03.107Z,61.57
2023-06-07T10:40:03.363Z,61.96
2023-06-07T10:41:03.152Z,62.26
2023-06-07T10:42:03.145Z,62.06
2023-06-07T10:43:03.062Z,62.37
2023-06-07T10:44:03.065Z,62.56
2023-06-07T10:45:03.112Z,62.56
2023-06-07T10:46:03.070Z,61.87
2023-06-07T10:47:03.185Z,61.76
2023-06-07T10:48:03.064Z,62.06
2023-06-07T10:49:03.037Z,62.66
2023-06-07T10:50:03.001Z,62.56
2023-06-07T10:51:02.992Z,62.26
2023-06-07T10:52:02.994Z,62.37
2023-06-07T10:53:03.011Z,62.26
2023-06-07T10:54:02.960Z,61.87
2023-06-07T10:55:02.959Z,62.37
2023-06-07T10:56:02.941Z,62.37
2023-06-07T10:57:02.994Z,62.16
2023-06-07T10:58:02.921Z,62.37
2023-06-07T10:59:02.978Z,62.16
2023-06-07T11:00:03.318Z,62.16
2023-06-07T11:01:02.904Z,61.87
2023-06-07T11:02:03.064Z,62.06
2023-06-07T11:03:03.007Z,61.96
2023-06-07T11:04:03.046Z,62.06
2023-06-07T11:05:03.069Z,62.23
2023-06-07T11:06:03.004Z,62.04
2023-06-07T11:07:02.840Z,61.66
2023-06-07T11:08:02.824Z,62.26
2023-06-07T11:09:02.806Z,62.46
2023-06-07T11:10:02.981Z,62.46
2023-06-07T11:11:03.103Z,62.16
2023-06-07T11:12:02.791Z,62.34
2023-06-07T11:13:02.770Z,61.93
2023-06-07T11:14:02.760Z,61.83
2023-06-07T11:15:02.774Z,61.54
2023-06-07T11:16:02.785Z,61.54
2023-06-07T11:17:02.816Z,60.83
2023-06-07T11:18:02.764Z,60.74
2023-06-07T11:19:02.708Z,60.74
2023-06-07T11:20:03.060Z,59.91
2023-06-07T11:21:02.760Z,59.01
2023-06-07T11:22:02.731Z,58.88
2023-06-07T11:23:02.667Z,59.58
2023-06-07T11:24:02.671Z,59.98
2023-06-07T11:25:02.692Z,60.28
2023-06-07T11:26:02.650Z,60.08
2023-06-07T11:27:02.654Z,58.55
2023-06-07T11:28:02.705Z,58.25
2023-06-07T11:29:02.616Z,57.86
2023-06-07T11:30:02.845Z,57.65
2023-06-07T11:31:02.652Z,57.43
2023-06-07T11:32:02.721Z,57.33
2023-06-07T11:33:02.606Z,57.00
2023-06-07T11:34:02.558Z,57.20
2023-06-07T11:35:02.651Z,57.07
2023-06-07T11:36:02.568Z,56.98
2023-06-07T11:37:02.525Z,56.57
2023-06-07T11:38:02.516Z,56.18
2023-06-07T11:39:02.510Z,56.68
2023-06-07T11:40:02.609Z,56.57
2023-06-07T11:41:02.517Z,56.90
2023-06-07T11:42:02.479Z,57.00
2023-06-07T11:43:02.464Z,57.30
2023-06-07T11:44:02.451Z,57.90
2023-06-07T11:45:02.438Z,58.59
2023-06-07T11:46:02.439Z,57.60
2023-06-07T11:47:02.496Z,57.90
2023-06-07T11:48:02.553Z,57.20
2023-06-07T11:49:02.540Z,56.81
2023-06-07T11:50:02.675Z,56.81
2023-06-07T11:51:02.379Z,56.81
2023-06-07T11:52:02.410Z,57.10
2023-06-07T11:53:02.356Z,57.50
2023-06-07T11:54:02.360Z,57.40
2023-06-07T11:55:02.348Z,57.10
2023-06-07T11:56:02.328Z,57.00
2023-06-07T11:57:02.418Z,56.90
2023-06-07T11:58:02.325Z,56.70
2023-06-07T11:59:02.302Z,56.21
2023-06-07T12:00:02.588Z,55.80
2023-06-07T12:01:02.275Z,55.04
2023-06-07T12:02:02.309Z,55.04
2023-06-07T12:03:02.608Z,55.93
2023-06-07T12:05:02.289Z,56.63
2023-06-07T12:06:02.257Z,57.13
2023-06-07T12:07:02.224Z,57.63
2023-06-07T12:08:02.207Z,56.73
2023-06-07T12:09:02.213Z,55.73
2023-06-07T12:10:02.227Z,55.24
2023-06-07T12:11:02.176Z,55.13
2023-06-07T12:12:02.163Z,55.21
2023-06-07T12:13:02.152Z,55.63
2023-06-07T12:14:02.163Z,56.23
2023-06-07T12:15:02.184Z,56.43
2023-06-07T12:16:02.335Z,56.13
2023-06-07T12:17:02.183Z,56.13
2023-06-07T12:18:02.177Z,56.33
2023-06-07T12:19:02.101Z,56.63
2023-06-07T12:20:02.112Z,56.93
2023-06-07T12:21:02.126Z,57.03
2023-06-07T12:22:02.064Z,57.03
2023-06-07T12:23:02.057Z,56.93
2023-06-07T12:24:02.075Z,56.63
2023-06-07T12:25:02.038Z,57.13
2023-06-07T12:26:02.086Z,57.73
2023-06-07T12:27:02.047Z,57.63
2023-06-07T12:28:01.992Z,57.73
2023-06-07T12:29:02.053Z,57.93
2023-06-07T12:30:02.034Z,57.93
2023-06-07T12:31:02.006Z,57.93
2023-06-07T12:32:01.956Z,57.80
2023-06-07T12:33:02.136Z,57.10
2023-06-07T12:34:01.980Z,57.10
2023-06-07T12:35:01.956Z,56.70
2023-06-07T12:36:01.919Z,56.51
2023-06-07T12:37:01.937Z,56.81
2023-06-07T12:38:01.893Z,56.38
2023-06-07T12:39:01.890Z,56.27
2023-06-07T12:40:01.892Z,56.57
2023-06-07T12:41:01.945Z,56.27
2023-06-07T12:42:01.859Z,56.55
2023-06-07T12:43:01.865Z,55.33
2023-06-07T12:44:01.833Z,54.60
2023-06-07T12:45:01.928Z,54.60
2023-06-07T12:46:01.818Z,54.11
2023-06-07T12:47:01.882Z,54.01
2023-06-07T12:48:01.823Z,54.01
2023-06-07T12:49:01.789Z,54.28
2023-06-07T12:50:01.814Z,54.18
2023-06-07T12:51:01.796Z,54.18
2023-06-07T12:52:01.774Z,53.31
2023-06-07T12:53:01.760Z,52.72